Time,TemperatureF,DewpointF,PressureIn,WindDirection,WindDirectionDegrees,WindSpeedMPH,WindSpeedGustMPH,Humidity,HourlyPrecipIn,Conditions,Clouds,dailyrainin,SolarRadiationWatts/m^2,SoftwareType,DateUTC
2013-05-31 00:05:00,75.6,72.0,30.02,SE,135,1.0,9.0,89,0.00,,,0.00,0,weatherlink.com 1.10,2013-05-31 04:05:00,
2013-05-31 00:20:00,75.8,72.0,30.01,East,99,0.0,6.0,89,0.00,,,0.00,0,weatherlink.com 1.10,2013-05-31 04:20:00,
2013-05-31 00:35:00,75.9,73.0,30.01,East,88,1.0,7.0,89,0.00,,,0.00,0,weatherlink.com 1.10,2013-05-31 04:35:00,
2013-05-31 00:50:00,75.5,73.0,30.00,ESE,109,0.0,3.0,91,0.01,,,0.01,0,weatherlink.com 1.10,2013-05-31 04:50:00,
2013-05-31 01:05:00,75.1,73.0,30.00,ESE,113,0.0,8.0,92,0.01,,,0.01,0,weatherlink.com 1.10,2013-05-31 05:05:00,
2013-05-31 01:20:00,75.0,73.0,30.00,ESE,119,2.0,5.0,93,0.01,,,0.01,0,weatherlink.com 1.10,2013-05-31 05:20:00,
2013-05-31 01:35:00,75.0,73.0,29.99,ESE,107,7.0,8.0,93,0.01,,,0.01,0,weatherlink.com 1.10,2013-05-31 05:35:00,
2013-05-31 01:50:00,75.1,73.0,29.98,East,100,2.0,7.0,93,0.01,,,0.02,0,weatherlink.com 1.10,2013-05-31 05:50:00,
2013-05-31 02:05:00,74.9,73.0,29.97,South,173,1.0,8.0,93,0.01,,,0.02,0,weatherlink.com 1.10,2013-05-31 06:05:00,
2013-05-31 02:20:00,74.9,73.0,29.97,SSE,161,2.0,8.0,94,0.01,,,0.02,0,weatherlink.com 1.10,2013-05-31 06:20:00,
2013-05-31 02:35:00,74.6,73.0,29.98,East,101,1.0,4.0,93,0.01,,,0.02,0,weatherlink.com 1.10,2013-05-31 06:35:00,
2013-05-31 02:50:00,74.6,73.0,29.98,East,90,5.0,5.0,94,0.00,,,0.02,0,weatherlink.com 1.10,2013-05-31 06:50:00,
2013-05-31 03:05:00,74.8,73.0,29.98,ESE,117,0.0,9.0,94,0.00,,,0.00,0,weatherlink.com 1.10,2013-05-31 07:05:00,
2013-05-31 03:20:00,74.8,73.0,29.97,ESE,108,1.0,7.0,94,0.00,,,0.00,0,weatherlink.com 1.10,2013-05-31 07:20:00,
2013-05-31 03:35:00,74.8,73.0,29.97,SE,136,0.0,7.0,94,0.00,,,0.00,0,weatherlink.com 1.10,2013-05-31 07:35:00,
2013-05-31 03:50:00,74.9,73.0,29.98,ESE,104,0.0,5.0,93,0.00,,,0.00,0,weatherlink.com 1.10,2013-05-31 07:50:00,
2013-05-31 04:06:00,75.1,73.0,29.98,ESE,106,2.0,5.0,94,0.00,,,0.00,0,weatherlink.com 1.10,2013-05-31 08:06:00,
2013-05-31 04:21:00,74.9,73.0,29.98,ESE,116,0.0,4.0,94,0.00,,,0.00,0,weatherlink.com 1.10,2013-05-31 08:21:00,
2013-05-31 04:36:00,74.8,73.0,29.98,East,79,3.0,7.0,93,0.00,,,0.00,0,weatherlink.com 1.10,2013-05-31 08:36:00,
2013-05-31 04:51:00,74.7,73.0,29.98,East,86,1.0,7.0,94,0.00,,,0.00,0,weatherlink.com 1.10,2013-05-31 08:51:00,
2013-05-31 05:06:00,74.7,73.0,29.98,ESE,111,0.0,4.0,94,0.00,,,0.00,0,weatherlink.com 1.10,2013-05-31 09:06:00,
2013-05-31 05:21:00,74.8,73.0,29.99,East,98,0.0,7.0,94,0.00,,,0.00,0,weatherlink.com 1.10,2013-05-31 09:21:00,
2013-05-31 05:36:00,74.6,73.0,29.99,East,95,0.0,3.0,95,0.00,,,0.00,0,weatherlink.com 1.10,2013-05-31 09:36:00,
2013-05-31 05:51:00,74.5,73.0,29.99,SE,146,0.0,5.0,95,0.00,,,0.00,0,weatherlink.com 1.10,2013-05-31 09:51:00,
2013-05-31 06:06:00,74.7,73.0,30.00,SSE,147,3.0,6.0,95,0.01,,,0.01,16,weatherlink.com 1.10,2013-05-31 10:06:00,
2013-05-31 06:21:00,74.7,73.0,30.00,SE,140,0.0,1.0,95,0.01,,,0.01,25,weatherlink.com 1.10,2013-05-31 10:21:00,
2013-05-31 06:51:00,74.7,74.0,30.01,SSE,148,0.0,0.0,96,0.01,,,0.01,39,weatherlink.com 1.10,2013-05-31 10:51:00,
2013-05-31 07:06:00,74.8,73.0,30.02,SSE,148,0.0,1.0,95,0.00,,,0.01,28,weatherlink.com 1.10,2013-05-31 11:06:00,
2013-05-31 07:21:00,74.8,73.0,30.03,ESE,123,1.0,7.0,95,0.00,,,0.01,81,weatherlink.com 1.10,2013-05-31 11:21:00,
2013-05-31 07:36:00,74.7,73.0,30.03,East,82,2.0,8.0,95,0.00,,,0.01,123,weatherlink.com 1.10,2013-05-31 11:36:00,
2013-05-31 07:51:00,74.7,73.0,30.02,ESE,122,2.0,7.0,93,0.00,,,0.01,116,weatherlink.com 1.10,2013-05-31 11:51:00,
2013-05-31 08:06:00,75.2,73.0,30.03,NE,49,2.0,6.0,93,0.00,,,0.01,153,weatherlink.com 1.10,2013-05-31 12:06:00,
2013-05-31 08:21:00,75.6,73.0,30.03,SE,144,2.0,8.0,92,0.00,,,0.01,185,weatherlink.com 1.10,2013-05-31 12:21:00,
2013-05-31 08:36:00,76.3,74.0,30.03,SSE,149,0.0,7.0,91,0.00,,,0.01,281,weatherlink.com 1.10,2013-05-31 12:36:00,
2013-05-31 08:51:00,77.6,75.0,30.05,NE,46,1.0,7.0,90,0.00,,,0.01,294,weatherlink.com 1.10,2013-05-31 12:51:00,
2013-05-31 09:06:00,78.4,75.0,30.05,East,92,1.0,7.0,88,0.00,,,0.01,287,weatherlink.com 1.10,2013-05-31 13:06:00,
2013-05-31 09:21:00,78.4,75.0,30.04,ENE,64,2.0,5.0,88,0.00,,,0.01,248,weatherlink.com 1.10,2013-05-31 13:21:00,
2013-05-31 09:36:00,78.0,74.0,30.05,East,94,6.0,10.0,86,0.00,,,0.01,221,weatherlink.com 1.10,2013-05-31 13:36:00,
2013-05-31 09:51:00,78.2,74.0,30.05,ESE,109,1.0,4.0,88,0.00,,,0.01,294,weatherlink.com 1.10,2013-05-31 13:51:00,
2013-05-31 10:06:00,79.4,76.0,30.04,East,92,1.0,5.0,88,0.00,,,0.01,387,weatherlink.com 1.10,2013-05-31 14:06:00,
2013-05-31 10:21:00,79.4,75.0,30.04,ESE,104,4.0,11.0,86,0.00,,,0.01,211,weatherlink.com 1.10,2013-05-31 14:21:00,
2013-05-31 10:36:00,77.8,75.0,30.04,ESE,111,2.0,7.0,90,0.02,,,0.03,204,weatherlink.com 1.10,2013-05-31 14:36:00,
2013-05-31 10:51:00,77.3,75.0,30.04,East,90,2.0,9.0,92,0.03,,,0.04,352,weatherlink.com 1.10,2013-05-31 14:51:00,
2013-05-31 11:06:00,78.5,75.0,30.04,SE,124,3.0,6.0,90,0.03,,,0.04,462,weatherlink.com 1.10,2013-05-31 15:06:00,
2013-05-31 11:21:00,79.1,76.0,30.03,ESE,110,0.0,6.0,89,0.03,,,0.04,229,weatherlink.com 1.10,2013-05-31 15:21:00,
2013-05-31 11:36:00,77.5,74.0,30.04,East,89,2.0,10.0,89,0.01,,,0.04,244,weatherlink.com 1.10,2013-05-31 15:36:00,
2013-05-31 11:51:00,77.2,75.0,30.03,ESE,110,0.0,7.0,91,0.00,,,0.04,267,weatherlink.com 1.10,2013-05-31 15:51:00,
2013-05-31 12:06:00,77.4,75.0,30.04,ESE,123,1.0,9.0,91,0.00,,,0.04,185,weatherlink.com 1.10,2013-05-31 16:06:00,
2013-05-31 12:21:00,76.6,74.0,30.03,SSE,162,3.0,11.0,92,0.06,,,0.10,171,weatherlink.com 1.10,2013-05-31 16:21:00,
2013-05-31 12:37:00,76.8,75.0,30.02,ESE,105,3.0,5.0,94,0.06,,,0.10,209,weatherlink.com 1.10,2013-05-31 16:37:00,
2013-05-31 12:52:00,77.4,75.0,30.02,SE,128,4.0,4.0,93,0.06,,,0.10,239,weatherlink.com 1.10,2013-05-31 16:52:00,
2013-05-31 13:07:00,78.0,76.0,30.02,ESE,103,2.0,4.0,92,0.06,,,0.10,292,weatherlink.com 1.10,2013-05-31 17:07:00,
2013-05-31 13:22:00,78.5,75.0,30.02,SE,128,3.0,6.0,90,0.00,,,0.10,429,weatherlink.com 1.10,2013-05-31 17:22:00,
2013-05-31 13:37:00,79.5,75.0,30.01,ESE,123,3.0,9.0,87,0.00,,,0.10,622,weatherlink.com 1.10,2013-05-31 17:37:00,
2013-05-31 13:52:00,81.0,76.0,30.00,ESE,109,0.0,10.0,84,0.00,,,0.10,788,weatherlink.com 1.10,2013-05-31 17:52:00,
2013-05-31 14:07:00,80.9,74.0,29.99,East,93,5.0,11.0,79,0.00,,,0.10,860,weatherlink.com 1.10,2013-05-31 18:07:00,
2013-05-31 14:22:00,81.6,75.0,29.99,NE,46,3.0,10.0,81,0.00,,,0.10,951,weatherlink.com 1.10,2013-05-31 18:22:00,
2013-05-31 14:37:00,82.2,75.0,29.98,SSE,157,3.0,11.0,78,0.00,,,0.10,759,weatherlink.com 1.10,2013-05-31 18:37:00,
2013-05-31 14:52:00,81.3,74.0,29.98,East,92,3.0,12.0,79,0.00,,,0.10,515,weatherlink.com 1.10,2013-05-31 18:52:00,
2013-05-31 15:07:00,80.9,74.0,29.98,ESE,113,3.0,8.0,80,0.00,,,0.10,302,weatherlink.com 1.10,2013-05-31 19:07:00,
2013-05-31 15:52:00,75.8,73.0,29.98,ESE,107,1.0,10.0,92,0.05,,,0.15,44,weatherlink.com 1.10,2013-05-31 19:52:00,
2013-05-31 16:07:00,75.6,74.0,29.98,ESE,114,0.0,7.0,94,0.08,,,0.18,114,weatherlink.com 1.10,2013-05-31 20:07:00,
2013-05-31 16:22:00,76.3,74.0,29.97,SE,130,0.0,2.0,93,0.08,,,0.18,90,weatherlink.com 1.10,2013-05-31 20:22:00,
2013-05-31 16:37:00,76.5,74.0,29.97,SE,129,0.0,3.0,93,0.08,,,0.18,69,weatherlink.com 1.10,2013-05-31 20:37:00,
2013-05-31 16:52:00,76.7,75.0,29.97,SE,130,0.0,2.0,93,0.03,,,0.18,70,weatherlink.com 1.10,2013-05-31 20:52:00,
2013-05-31 17:07:00,76.7,74.0,29.96,East,89,1.0,7.0,92,0.00,,,0.18,105,weatherlink.com 1.10,2013-05-31 21:07:00,
2013-05-31 17:22:00,76.8,74.0,29.97,ESE,110,2.0,5.0,90,0.00,,,0.18,104,weatherlink.com 1.10,2013-05-31 21:22:00,
2013-05-31 17:37:00,76.9,74.0,29.97,ENE,78,3.0,8.0,90,0.00,,,0.18,100,weatherlink.com 1.10,2013-05-31 21:37:00,
2013-05-31 17:52:00,77.0,73.0,29.97,SE,124,2.0,8.0,88,0.00,,,0.18,86,weatherlink.com 1.10,2013-05-31 21:52:00,
2013-05-31 18:07:00,77.0,74.0,29.97,East,85,0.0,6.0,89,0.00,,,0.18,60,weatherlink.com 1.10,2013-05-31 22:07:00,
2013-05-31 18:22:00,76.9,73.0,29.97,East,100,1.0,7.0,88,0.00,,,0.18,39,weatherlink.com 1.10,2013-05-31 22:22:00,
2013-05-31 18:37:00,76.8,73.0,29.97,East,87,0.0,8.0,88,0.00,,,0.18,19,weatherlink.com 1.10,2013-05-31 22:37:00,
2013-05-31 18:52:00,76.7,73.0,29.98,SE,138,3.0,9.0,88,0.00,,,0.18,7,weatherlink.com 1.10,2013-05-31 22:52:00,
2013-05-31 19:07:00,76.6,73.0,29.98,East,96,1.0,7.0,89,0.00,,,0.18,0,weatherlink.com 1.10,2013-05-31 23:07:00,
2013-05-31 19:22:00,76.4,73.0,29.99,East,83,0.0,11.0,89,0.00,,,0.18,0,weatherlink.com 1.10,2013-05-31 23:22:00,
2013-05-31 19:37:00,76.3,73.0,29.99,ESE,104,0.0,5.0,90,0.00,,,0.18,0,weatherlink.com 1.10,2013-05-31 23:37:00,
2013-05-31 19:52:00,76.2,73.0,29.99,ESE,104,0.0,2.0,90,0.00,,,0.18,0,weatherlink.com 1.10,2013-05-31 23:52:00,
2013-05-31 20:07:00,76.2,73.0,30.00,ESE,105,0.0,4.0,90,0.00,,,0.18,0,weatherlink.com 1.10,2013-06-01 00:07:00,
2013-05-31 20:22:00,76.2,73.0,30.00,ESE,107,1.0,4.0,90,0.00,,,0.18,0,weatherlink.com 1.10,2013-06-01 00:22:00,
2013-05-31 20:37:00,76.2,73.0,30.01,SE,125,0.0,4.0,90,0.00,,,0.18,0,weatherlink.com 1.10,2013-06-01 00:37:00,
2013-05-31 20:52:00,76.3,73.0,30.01,ESE,109,2.0,11.0,90,0.00,,,0.18,0,weatherlink.com 1.10,2013-06-01 00:52:00,
2013-05-31 21:07:00,75.9,73.0,30.02,ESE,115,0.0,3.0,91,0.00,,,0.18,0,weatherlink.com 1.10,2013-06-01 01:07:00,
2013-05-31 21:22:00,75.6,73.0,30.02,ESE,115,0.0,2.0,92,0.00,,,0.18,0,weatherlink.com 1.10,2013-06-01 01:22:00,
2013-05-31 21:37:00,75.6,73.0,30.03,ESE,107,3.0,8.0,92,0.00,,,0.18,0,weatherlink.com 1.10,2013-06-01 01:37:00,
2013-05-31 21:52:00,75.5,73.0,30.03,East,93,1.0,6.0,91,0.00,,,0.18,0,weatherlink.com 1.10,2013-06-01 01:52:00,
2013-05-31 22:07:00,75.5,73.0,30.03,East,90,2.0,5.0,92,0.00,,,0.18,0,weatherlink.com 1.10,2013-06-01 02:07:00,
2013-05-31 22:22:00,75.6,73.0,30.03,East,91,2.0,9.0,91,0.00,,,0.18,0,weatherlink.com 1.10,2013-06-01 02:22:00,
2013-05-31 22:37:00,75.3,73.0,30.04,East,94,1.0,4.0,92,0.00,,,0.18,0,weatherlink.com 1.10,2013-06-01 02:37:00,
2013-05-31 22:52:00,75.2,73.0,30.04,SE,140,1.0,4.0,92,0.00,,,0.18,0,weatherlink.com 1.10,2013-06-01 02:52:00,
2013-05-31 23:07:00,75.2,73.0,30.03,SSE,152,2.0,9.0,92,0.00,,,0.18,0,weatherlink.com 1.10,2013-06-01 03:07:00,
2013-05-31 23:22:00,75.2,73.0,30.03,East,92,1.0,5.0,92,0.00,,,0.18,0,weatherlink.com 1.10,2013-06-01 03:22:00,
2013-05-31 23:37:00,75.0,73.0,30.03,East,92,0.0,3.0,92,0.00,,,0.18,0,weatherlink.com 1.10,2013-06-01 03:37:00,
2013-05-31 23:52:00,74.9,73.0,30.03,ESE,106,1.0,4.0,92,0.00,,,0.18,0,weatherlink.com 1.10,2013-06-01 03:52:00,